sensor_id;sensor_type;location;lat;lon;timestamp;P1;durP1;ratioP1;P2;durP2;ratioP2
55931;SDS011;41837;55.700;37.984;2022-08-24T00:02:03;135.45;;;67.47;;
55931;SDS011;41837;55.700;37.984;2022-08-24T00:04:29;136.07;;;67.47;;
55931;SDS011;41837;55.700;37.984;2022-08-24T00:06:56;137.00;;;65.50;;
55931;SDS011;41837;55.700;37.984;2022-08-24T00:09:21;130.52;;;61.83;;
55931;SDS011;41837;55.700;37.984;2022-08-24T00:11:47;150.73;;;65.95;;
55931;SDS011;41837;55.700;37.984;2022-08-24T00:14:13;147.90;;;65.25;;
55931;SDS011;41837;55.700;37.984;2022-08-24T00:16:39;139.77;;;64.55;;
55931;SDS011;41837;55.700;37.984;2022-08-24T00:19:05;147.10;;;64.15;;
55931;SDS011;41837;55.700;37.984;2022-08-24T00:21:31;144.27;;;64.55;;
55931;SDS011;41837;55.700;37.984;2022-08-24T00:23:57;152.05;;;64.47;;
55931;SDS011;41837;55.700;37.984;2022-08-24T00:26:24;143.00;;;65.18;;
55931;SDS011;41837;55.700;37.984;2022-08-24T00:28:50;150.98;;;65.00;;
55931;SDS011;41837;55.700;37.984;2022-08-24T00:31:16;149.02;;;64.68;;
55931;SDS011;41837;55.700;37.984;2022-08-24T00:33:42;142.25;;;65.63;;
55931;SDS011;41837;55.700;37.984;2022-08-24T00:36:08;153.88;;;66.43;;
55931;SDS011;41837;55.700;37.984;2022-08-24T00:38:34;166.40;;;64.45;;
55931;SDS011;41837;55.700;37.984;2022-08-24T00:41:00;174.52;;;64.00;;
55931;SDS011;41837;55.700;37.984;2022-08-24T00:43:26;174.52;;;64.85;;
55931;SDS011;41837;55.700;37.984;2022-08-24T00:48:32;176.95;;;63.33;;
55931;SDS011;41837;55.700;37.984;2022-08-24T00:56:26;201.00;;;66.88;;
55931;SDS011;41837;55.700;37.984;2022-08-24T00:58:55;182.15;;;62.95;;
55931;SDS011;41837;55.700;37.984;2022-08-24T01:01:22;200.18;;;65.07;;
55931;SDS011;41837;55.700;37.984;2022-08-24T01:03:49;196.18;;;68.05;;
55931;SDS011;41837;55.700;37.984;2022-08-24T01:06:16;181.93;;;66.95;;
55931;SDS011;41837;55.700;37.984;2022-08-24T01:08:42;173.75;;;63.55;;
55931;SDS011;41837;55.700;37.984;2022-08-24T01:11:12;174.80;;;64.25;;
55931;SDS011;41837;55.700;37.984;2022-08-24T01:13:41;185.07;;;67.93;;
55931;SDS011;41837;55.700;37.984;2022-08-24T01:16:08;166.43;;;65.43;;
55931;SDS011;41837;55.700;37.984;2022-08-24T01:18:34;168.23;;;68.35;;
55931;SDS011;41837;55.700;37.984;2022-08-24T01:23:53;152.55;;;67.28;;
55931;SDS011;41837;55.700;37.984;2022-08-24T01:26:21;173.80;;;69.00;;
55931;SDS011;41837;55.700;37.984;2022-08-24T01:28:49;171.43;;;66.22;;
55931;SDS011;41837;55.700;37.984;2022-08-24T01:31:19;159.02;;;66.22;;
55931;SDS011;41837;55.700;37.984;2022-08-24T01:33:47;163.10;;;66.80;;
55931;SDS011;41837;55.700;37.984;2022-08-24T01:36:17;156.73;;;68.40;;
55931;SDS011;41837;55.700;37.984;2022-08-24T01:38:45;173.35;;;69.05;;
55931;SDS011;41837;55.700;37.984;2022-08-24T01:41:11;170.10;;;68.18;;
55931;SDS011;41837;55.700;37.984;2022-08-24T01:43:37;172.20;;;67.10;;
55931;SDS011;41837;55.700;37.984;2022-08-24T01:46:05;151.98;;;64.35;;
55931;SDS011;41837;55.700;37.984;2022-08-24T01:48:32;160.43;;;68.47;;
55931;SDS011;41837;55.700;37.984;2022-08-24T01:50:58;147.00;;;65.88;;
55931;SDS011;41837;55.700;37.984;2022-08-24T01:53:24;135.50;;;65.40;;
55931;SDS011;41837;55.700;37.984;2022-08-24T01:55:50;130.90;;;64.63;;
55931;SDS011;41837;55.700;37.984;2022-08-24T01:58:16;139.50;;;65.50;;
55931;SDS011;41837;55.700;37.984;2022-08-24T02:00:43;150.32;;;64.85;;
55931;SDS011;41837;55.700;37.984;2022-08-24T02:03:09;137.55;;;64.53;;
55931;SDS011;41837;55.700;37.984;2022-08-24T02:05:35;133.18;;;64.35;;
55931;SDS011;41837;55.700;37.984;2022-08-24T02:08:02;147.18;;;63.85;;
55931;SDS011;41837;55.700;37.984;2022-08-24T02:10:28;134.95;;;63.67;;
55931;SDS011;41837;55.700;37.984;2022-08-24T02:12:55;132.13;;;63.80;;
55931;SDS011;41837;55.700;37.984;2022-08-24T02:15:27;137.45;;;62.22;;
55931;SDS011;41837;55.700;37.984;2022-08-24T02:17:54;135.32;;;62.38;;
55931;SDS011;41837;55.700;37.984;2022-08-24T02:20:20;118.75;;;62.55;;
55931;SDS011;41837;55.700;37.984;2022-08-24T02:22:47;136.80;;;63.83;;
55931;SDS011;41837;55.700;37.984;2022-08-24T02:25:13;130.98;;;63.50;;
55931;SDS011;41837;55.700;37.984;2022-08-24T02:27:39;124.72;;;61.95;;
55931;SDS011;41837;55.700;37.984;2022-08-24T02:30:06;129.70;;;61.78;;
55931;SDS011;41837;55.700;37.984;2022-08-24T02:32:32;130.68;;;62.88;;
55931;SDS011;41837;55.700;37.984;2022-08-24T02:34:58;150.35;;;61.95;;
55931;SDS011;41837;55.700;37.984;2022-08-24T02:37:24;142.88;;;62.92;;
55931;SDS011;41837;55.700;37.984;2022-08-24T02:39:51;129.13;;;61.63;;
55931;SDS011;41837;55.700;37.984;2022-08-24T02:42:19;136.88;;;62.28;;
55931;SDS011;41837;55.700;37.984;2022-08-24T02:44:44;137.27;;;63.13;;
55931;SDS011;41837;55.700;37.984;2022-08-24T02:47:10;120.85;;;60.85;;
55931;SDS011;41837;55.700;37.984;2022-08-24T02:49:37;137.93;;;59.17;;
55931;SDS011;41837;55.700;37.984;2022-08-24T02:52:03;142.73;;;62.10;;
55931;SDS011;41837;55.700;37.984;2022-08-24T02:54:31;122.03;;;59.88;;
55931;SDS011;41837;55.700;37.984;2022-08-24T02:56:56;126.47;;;58.17;;
55931;SDS011;41837;55.700;37.984;2022-08-24T02:59:23;134.77;;;60.58;;
55931;SDS011;41837;55.700;37.984;2022-08-24T03:01:49;119.78;;;57.80;;
55931;SDS011;41837;55.700;37.984;2022-08-24T03:04:15;116.18;;;58.63;;
55931;SDS011;41837;55.700;37.984;2022-08-24T03:06:41;122.97;;;57.17;;
55931;SDS011;41837;55.700;37.984;2022-08-24T03:09:08;133.90;;;57.08;;
55931;SDS011;41837;55.700;37.984;2022-08-24T03:11:34;114.97;;;54.70;;
55931;SDS011;41837;55.700;37.984;2022-08-24T03:14:00;127.05;;;54.88;;
55931;SDS011;41837;55.700;37.984;2022-08-24T03:16:26;139.88;;;53.92;;
55931;SDS011;41837;55.700;37.984;2022-08-24T03:18:53;120.30;;;52.63;;
55931;SDS011;41837;55.700;37.984;2022-08-24T03:21:20;123.63;;;52.55;;
55931;SDS011;41837;55.700;37.984;2022-08-24T03:23:47;113.13;;;51.58;;
55931;SDS011;41837;55.700;37.984;2022-08-24T03:26:14;105.53;;;51.38;;
55931;SDS011;41837;55.700;37.984;2022-08-24T03:28:40;100.30;;;48.70;;
55931;SDS011;41837;55.700;37.984;2022-08-24T03:31:07;112.50;;;49.13;;
55931;SDS011;41837;55.700;37.984;2022-08-24T03:33:33;96.82;;;49.55;;
55931;SDS011;41837;55.700;37.984;2022-08-24T03:35:59;95.15;;;48.53;;
55931;SDS011;41837;55.700;37.984;2022-08-24T03:38:26;107.53;;;47.92;;
55931;SDS011;41837;55.700;37.984;2022-08-24T03:40:52;97.15;;;46.58;;
55931;SDS011;41837;55.700;37.984;2022-08-24T03:43:19;103.60;;;45.30;;
55931;SDS011;41837;55.700;37.984;2022-08-24T03:48:29;99.25;;;44.78;;
55931;SDS011;41837;55.700;37.984;2022-08-24T03:50:56;105.18;;;45.33;;
55931;SDS011;41837;55.700;37.984;2022-08-24T03:53:22;110.40;;;46.17;;
55931;SDS011;41837;55.700;37.984;2022-08-24T03:55:49;96.28;;;44.53;;
55931;SDS011;41837;55.700;37.984;2022-08-24T03:58:14;99.05;;;42.45;;
55931;SDS011;41837;55.700;37.984;2022-08-24T04:00:41;94.65;;;40.90;;
55931;SDS011;41837;55.700;37.984;2022-08-24T04:03:10;83.85;;;39.38;;
55931;SDS011;41837;55.700;37.984;2022-08-24T04:05:38;90.20;;;39.17;;
55931;SDS011;41837;55.700;37.984;2022-08-24T04:08:04;87.15;;;37.30;;
55931;SDS011;41837;55.700;37.984;2022-08-24T04:10:33;81.45;;;36.95;;
55931;SDS011;41837;55.700;37.984;2022-08-24T04:12:59;80.22;;;36.13;;
55931;SDS011;41837;55.700;37.984;2022-08-24T04:15:26;68.13;;;35.83;;
55931;SDS011;41837;55.700;37.984;2022-08-24T04:17:54;70.85;;;35.50;;
55931;SDS011;41837;55.700;37.984;2022-08-24T04:20:20;63.17;;;34.38;;
55931;SDS011;41837;55.700;37.984;2022-08-24T04:22:46;73.22;;;33.80;;
55931;SDS011;41837;55.700;37.984;2022-08-24T04:25:13;60.80;;;31.85;;
55931;SDS011;41837;55.700;37.984;2022-08-24T04:27:39;70.18;;;31.70;;
55931;SDS011;41837;55.700;37.984;2022-08-24T04:30:07;67.90;;;32.55;;
55931;SDS011;41837;55.700;37.984;2022-08-24T04:32:48;66.43;;;32.15;;
55931;SDS011;41837;55.700;37.984;2022-08-24T04:35:14;63.55;;;32.10;;
55931;SDS011;41837;55.700;37.984;2022-08-24T04:37:39;86.88;;;30.50;;
55931;SDS011;41837;55.700;37.984;2022-08-24T04:40:05;72.90;;;32.20;;
55931;SDS011;41837;55.700;37.984;2022-08-24T04:42:39;57.30;;;31.67;;
55931;SDS011;41837;55.700;37.984;2022-08-24T04:45:05;60.80;;;31.33;;
55931;SDS011;41837;55.700;37.984;2022-08-24T04:47:32;54.83;;;30.38;;
55931;SDS011;41837;55.700;37.984;2022-08-24T04:49:58;58.00;;;30.70;;
55931;SDS011;41837;55.700;37.984;2022-08-24T04:52:24;55.85;;;29.95;;
55931;SDS011;41837;55.700;37.984;2022-08-24T04:54:51;53.47;;;30.33;;
55931;SDS011;41837;55.700;37.984;2022-08-24T04:57:20;57.03;;;28.73;;
55931;SDS011;41837;55.700;37.984;2022-08-24T04:59:46;53.10;;;27.15;;
55931;SDS011;41837;55.700;37.984;2022-08-24T05:02:13;48.08;;;25.83;;
55931;SDS011;41837;55.700;37.984;2022-08-24T05:04:39;44.15;;;25.00;;
55931;SDS011;41837;55.700;37.984;2022-08-24T05:07:06;48.20;;;23.00;;
55931;SDS011;41837;55.700;37.984;2022-08-24T05:09:32;40.15;;;21.05;;
55931;SDS011;41837;55.700;37.984;2022-08-24T05:11:58;42.95;;;21.27;;
55931;SDS011;41837;55.700;37.984;2022-08-24T05:14:28;33.72;;;17.05;;
55931;SDS011;41837;55.700;37.984;2022-08-24T05:16:54;31.70;;;17.20;;
55931;SDS011;41837;55.700;37.984;2022-08-24T05:19:21;28.23;;;14.65;;
55931;SDS011;41837;55.700;37.984;2022-08-24T05:21:47;25.17;;;14.57;;
55931;SDS011;41837;55.700;37.984;2022-08-24T05:24:13;24.90;;;14.68;;
55931;SDS011;41837;55.700;37.984;2022-08-24T05:26:39;26.23;;;14.57;;
55931;SDS011;41837;55.700;37.984;2022-08-24T05:29:06;22.05;;;13.65;;
55931;SDS011;41837;55.700;37.984;2022-08-24T05:31:46;20.08;;;11.73;;
55931;SDS011;41837;55.700;37.984;2022-08-24T05:34:13;23.35;;;12.02;;
55931;SDS011;41837;55.700;37.984;2022-08-24T05:36:39;27.33;;;13.20;;
55931;SDS011;41837;55.700;37.984;2022-08-24T05:39:10;20.05;;;11.98;;
55931;SDS011;41837;55.700;37.984;2022-08-24T05:41:41;20.73;;;11.50;;
55931;SDS011;41837;55.700;37.984;2022-08-24T05:44:36;13.90;;;10.30;;
55931;SDS011;41837;55.700;37.984;2022-08-24T05:47:02;14.98;;;10.23;;
55931;SDS011;41837;55.700;37.984;2022-08-24T05:49:29;18.50;;;10.52;;
55931;SDS011;41837;55.700;37.984;2022-08-24T05:51:55;20.83;;;10.40;;
55931;SDS011;41837;55.700;37.984;2022-08-24T05:54:21;20.65;;;11.13;;
55931;SDS011;41837;55.700;37.984;2022-08-24T05:57:02;20.52;;;11.05;;
55931;SDS011;41837;55.700;37.984;2022-08-24T05:59:35;20.58;;;10.63;;
55931;SDS011;41837;55.700;37.984;2022-08-24T06:02:07;21.98;;;10.85;;
55931;SDS011;41837;55.700;37.984;2022-08-24T06:04:33;18.85;;;10.10;;
55931;SDS011;41837;55.700;37.984;2022-08-24T06:07:04;22.67;;;11.20;;
55931;SDS011;41837;55.700;37.984;2022-08-24T06:09:32;17.55;;;10.45;;
55931;SDS011;41837;55.700;37.984;2022-08-24T06:11:58;36.75;;;12.32;;
55931;SDS011;41837;55.700;37.984;2022-08-24T06:14:25;24.15;;;10.68;;
55931;SDS011;41837;55.700;37.984;2022-08-24T06:16:56;19.67;;;11.18;;
55931;SDS011;41837;55.700;37.984;2022-08-24T06:19:22;19.20;;;10.40;;
55931;SDS011;41837;55.700;37.984;2022-08-24T06:21:49;28.10;;;10.98;;
55931;SDS011;41837;55.700;37.984;2022-08-24T06:24:17;27.02;;;10.50;;
55931;SDS011;41837;55.700;37.984;2022-08-24T06:26:45;19.75;;;9.63;;
55931;SDS011;41837;55.700;37.984;2022-08-24T06:29:32;20.20;;;10.93;;
55931;SDS011;41837;55.700;37.984;2022-08-24T06:32:07;24.10;;;10.05;;
55931;SDS011;41837;55.700;37.984;2022-08-24T06:34:34;25.85;;;10.77;;
55931;SDS011;41837;55.700;37.984;2022-08-24T06:37:01;23.42;;;9.85;;
55931;SDS011;41837;55.700;37.984;2022-08-24T06:39:27;25.95;;;10.02;;
55931;SDS011;41837;55.700;37.984;2022-08-24T06:41:54;24.05;;;10.00;;
55931;SDS011;41837;55.700;37.984;2022-08-24T06:44:29;20.30;;;9.45;;
55931;SDS011;41837;55.700;37.984;2022-08-24T06:47:05;21.50;;;9.63;;
55931;SDS011;41837;55.700;37.984;2022-08-24T06:49:31;20.90;;;8.35;;
55931;SDS011;41837;55.700;37.984;2022-08-24T06:51:57;25.63;;;8.75;;
55931;SDS011;41837;55.700;37.984;2022-08-24T06:54:24;29.00;;;7.90;;
55931;SDS011;41837;55.700;37.984;2022-08-24T06:56:50;21.25;;;7.28;;
55931;SDS011;41837;55.700;37.984;2022-08-24T06:59:17;24.33;;;6.95;;
55931;SDS011;41837;55.700;37.984;2022-08-24T07:01:43;19.45;;;7.28;;
55931;SDS011;41837;55.700;37.984;2022-08-24T07:04:09;21.08;;;7.20;;
55931;SDS011;41837;55.700;37.984;2022-08-24T07:06:53;13.50;;;5.80;;
55931;SDS011;41837;55.700;37.984;2022-08-24T07:09:20;9.88;;;5.65;;
55931;SDS011;41837;55.700;37.984;2022-08-24T07:11:50;10.35;;;5.32;;
55931;SDS011;41837;55.700;37.984;2022-08-24T07:14:16;13.63;;;5.13;;
55931;SDS011;41837;55.700;37.984;2022-08-24T07:16:43;13.90;;;4.93;;
55931;SDS011;41837;55.700;37.984;2022-08-24T07:19:09;9.73;;;4.50;;
55931;SDS011;41837;55.700;37.984;2022-08-24T07:21:35;15.50;;;4.78;;
55931;SDS011;41837;55.700;37.984;2022-08-24T07:24:03;19.58;;;5.78;;
55931;SDS011;41837;55.700;37.984;2022-08-24T07:26:33;15.90;;;5.25;;
55931;SDS011;41837;55.700;37.984;2022-08-24T07:29:05;9.93;;;4.32;;
55931;SDS011;41837;55.700;37.984;2022-08-24T07:31:40;10.13;;;4.43;;
55931;SDS011;41837;55.700;37.984;2022-08-24T07:34:39;10.07;;;4.03;;
55931;SDS011;41837;55.700;37.984;2022-08-24T07:37:07;11.80;;;4.43;;
55931;SDS011;41837;55.700;37.984;2022-08-24T07:39:34;5.75;;;3.70;;
55931;SDS011;41837;55.700;37.984;2022-08-24T07:42:01;10.32;;;3.90;;
55931;SDS011;41837;55.700;37.984;2022-08-24T07:44:27;7.20;;;4.03;;
55931;SDS011;41837;55.700;37.984;2022-08-24T07:46:53;9.43;;;3.95;;
55931;SDS011;41837;55.700;37.984;2022-08-24T07:49:19;13.07;;;4.30;;
55931;SDS011;41837;55.700;37.984;2022-08-24T07:51:45;11.73;;;3.88;;
55931;SDS011;41837;55.700;37.984;2022-08-24T07:54:13;12.98;;;4.03;;
55931;SDS011;41837;55.700;37.984;2022-08-24T07:56:42;12.95;;;3.83;;
55931;SDS011;41837;55.700;37.984;2022-08-24T07:59:08;7.57;;;3.95;;
55931;SDS011;41837;55.700;37.984;2022-08-24T08:01:34;11.48;;;4.03;;
55931;SDS011;41837;55.700;37.984;2022-08-24T08:04:01;17.98;;;5.03;;
55931;SDS011;41837;55.700;37.984;2022-08-24T08:06:27;12.20;;;5.13;;
55931;SDS011;41837;55.700;37.984;2022-08-24T08:08:58;13.32;;;4.40;;
55931;SDS011;41837;55.700;37.984;2022-08-24T08:11:25;15.30;;;3.45;;
55931;SDS011;41837;55.700;37.984;2022-08-24T08:13:51;12.93;;;3.90;;
55931;SDS011;41837;55.700;37.984;2022-08-24T08:16:19;14.45;;;4.18;;
55931;SDS011;41837;55.700;37.984;2022-08-24T08:18:46;10.93;;;3.88;;
55931;SDS011;41837;55.700;37.984;2022-08-24T08:21:13;11.82;;;3.60;;
55931;SDS011;41837;55.700;37.984;2022-08-24T08:23:59;13.48;;;4.57;;
55931;SDS011;41837;55.700;37.984;2022-08-24T08:26:44;11.07;;;4.13;;
55931;SDS011;41837;55.700;37.984;2022-08-24T08:29:34;11.93;;;2.75;;
55931;SDS011;41837;55.700;37.984;2022-08-24T08:32:00;10.82;;;3.15;;
55931;SDS011;41837;55.700;37.984;2022-08-24T08:34:27;9.40;;;3.10;;
55931;SDS011;41837;55.700;37.984;2022-08-24T08:36:56;13.02;;;3.33;;
55931;SDS011;41837;55.700;37.984;2022-08-24T08:39:22;11.95;;;3.05;;
55931;SDS011;41837;55.700;37.984;2022-08-24T08:42:11;15.45;;;2.60;;
55931;SDS011;41837;55.700;37.984;2022-08-24T08:55:44;11.98;;;2.75;;
55931;SDS011;41837;55.700;37.984;2022-08-24T09:01:18;13.88;;;2.90;;
55931;SDS011;41837;55.700;37.984;2022-08-24T09:07:07;9.52;;;2.30;;
55931;SDS011;41837;55.700;37.984;2022-08-24T09:17:55;9.15;;;3.17;;
55931;SDS011;41837;55.700;37.984;2022-08-24T09:25:43;4.53;;;1.92;;
55931;SDS011;41837;55.700;37.984;2022-08-24T09:28:13;14.48;;;2.42;;
55931;SDS011;41837;55.700;37.984;2022-08-24T09:30:54;14.05;;;2.60;;
55931;SDS011;41837;55.700;37.984;2022-08-24T09:33:29;10.20;;;2.60;;
55931;SDS011;41837;55.700;37.984;2022-08-24T09:36:08;11.15;;;2.35;;
55931;SDS011;41837;55.700;37.984;2022-08-24T09:44:27;11.38;;;2.55;;
55931;SDS011;41837;55.700;37.984;2022-08-24T09:52:17;7.40;;;2.30;;
55931;SDS011;41837;55.700;37.984;2022-08-24T09:54:56;8.65;;;2.03;;
55931;SDS011;41837;55.700;37.984;2022-08-24T10:08:02;7.20;;;1.80;;
55931;SDS011;41837;55.700;37.984;2022-08-24T10:15:55;11.63;;;2.30;;
55931;SDS011;41837;55.700;37.984;2022-08-24T10:21:13;8.77;;;2.80;;
55931;SDS011;41837;55.700;37.984;2022-08-24T10:26:22;12.88;;;2.80;;
55931;SDS011;41837;55.700;37.984;2022-08-24T10:31:26;13.15;;;2.95;;
55931;SDS011;41837;55.700;37.984;2022-08-24T10:41:46;9.82;;;2.45;;
55931;SDS011;41837;55.700;37.984;2022-08-24T10:46:49;7.15;;;2.58;;
55931;SDS011;41837;55.700;37.984;2022-08-24T10:49:27;11.27;;;2.60;;
55931;SDS011;41837;55.700;37.984;2022-08-24T10:54:44;6.53;;;2.20;;
55931;SDS011;41837;55.700;37.984;2022-08-24T11:02:33;5.68;;;2.15;;
55931;SDS011;41837;55.700;37.984;2022-08-24T11:05:01;4.47;;;1.73;;
55931;SDS011;41837;55.700;37.984;2022-08-24T11:07:28;5.28;;;1.90;;
55931;SDS011;41837;55.700;37.984;2022-08-24T11:09:55;4.28;;;1.58;;
55931;SDS011;41837;55.700;37.984;2022-08-24T11:12:33;8.27;;;2.10;;
55931;SDS011;41837;55.700;37.984;2022-08-24T11:17:54;7.50;;;2.05;;
55931;SDS011;41837;55.700;37.984;2022-08-24T11:20:37;5.95;;;2.25;;
55931;SDS011;41837;55.700;37.984;2022-08-24T11:23:06;8.25;;;1.95;;
55931;SDS011;41837;55.700;37.984;2022-08-24T11:25:34;5.00;;;1.80;;
55931;SDS011;41837;55.700;37.984;2022-08-24T11:28:03;6.05;;;1.50;;
55931;SDS011;41837;55.700;37.984;2022-08-24T11:30:29;5.90;;;1.52;;
55931;SDS011;41837;55.700;37.984;2022-08-24T11:32:57;4.47;;;1.50;;
55931;SDS011;41837;55.700;37.984;2022-08-24T11:38:15;2.70;;;1.40;;
55931;SDS011;41837;55.700;37.984;2022-08-24T11:40:50;10.73;;;1.60;;
55931;SDS011;41837;55.700;37.984;2022-08-24T11:43:23;4.18;;;1.40;;
55931;SDS011;41837;55.700;37.984;2022-08-24T11:46:02;5.68;;;1.60;;
55931;SDS011;41837;55.700;37.984;2022-08-24T11:53:51;5.55;;;1.80;;
55931;SDS011;41837;55.700;37.984;2022-08-24T11:56:24;4.45;;;1.50;;
55931;SDS011;41837;55.700;37.984;2022-08-24T11:59:10;3.13;;;1.63;;
55931;SDS011;41837;55.700;37.984;2022-08-24T12:07:31;14.23;;;2.38;;
55931;SDS011;41837;55.700;37.984;2022-08-24T12:14:34;11.85;;;2.25;;
55931;SDS011;41837;55.700;37.984;2022-08-24T12:19:31;3.95;;;1.67;;
55931;SDS011;41837;55.700;37.984;2022-08-24T12:22:00;6.30;;;1.70;;
55931;SDS011;41837;55.700;37.984;2022-08-24T12:24:40;6.05;;;1.40;;
55931;SDS011;41837;55.700;37.984;2022-08-24T12:35:11;3.35;;;1.60;;
55931;SDS011;41837;55.700;37.984;2022-08-24T12:37:51;6.38;;;1.55;;
55931;SDS011;41837;55.700;37.984;2022-08-24T12:40:32;7.20;;;1.70;;
55931;SDS011;41837;55.700;37.984;2022-08-24T12:45:33;8.77;;;1.70;;
55931;SDS011;41837;55.700;37.984;2022-08-24T13:01:13;5.93;;;1.30;;
55931;SDS011;41837;55.700;37.984;2022-08-24T13:03:40;4.28;;;1.10;;
55931;SDS011;41837;55.700;37.984;2022-08-24T13:06:08;4.85;;;1.80;;
55931;SDS011;41837;55.700;37.984;2022-08-24T13:08:39;10.35;;;1.60;;
55931;SDS011;41837;55.700;37.984;2022-08-24T13:11:10;6.90;;;1.27;;
55931;SDS011;41837;55.700;37.984;2022-08-24T13:13:45;5.82;;;1.13;;
55931;SDS011;41837;55.700;37.984;2022-08-24T13:19:30;15.57;;;1.98;;
55931;SDS011;41837;55.700;37.984;2022-08-24T13:22:37;6.05;;;1.23;;
55931;SDS011;41837;55.700;37.984;2022-08-24T13:24:47;7.10;;;1.20;;
55931;SDS011;41837;55.700;37.984;2022-08-24T13:29:42;5.70;;;0.88;;
55931;SDS011;41837;55.700;37.984;2022-08-24T13:32:13;7.65;;;1.15;;
55931;SDS011;41837;55.700;37.984;2022-08-24T13:42:28;10.07;;;1.45;;
55931;SDS011;41837;55.700;37.984;2022-08-24T13:52:42;11.63;;;1.45;;
55931;SDS011;41837;55.700;37.984;2022-08-24T14:00:37;10.02;;;1.00;;
55931;SDS011;41837;55.700;37.984;2022-08-24T14:05:34;3.97;;;1.10;;
55931;SDS011;41837;55.700;37.984;2022-08-24T14:15:58;7.57;;;1.60;;
55931;SDS011;41837;55.700;37.984;2022-08-24T14:18:57;12.93;;;1.25;;
55931;SDS011;41837;55.700;37.984;2022-08-24T14:21:33;5.97;;;1.60;;
55931;SDS011;41837;55.700;37.984;2022-08-24T14:24:06;5.47;;;1.65;;
55931;SDS011;41837;55.700;37.984;2022-08-24T14:36:55;21.40;;;3.22;;
55931;SDS011;41837;55.700;37.984;2022-08-24T14:42:21;9.13;;;2.00;;
55931;SDS011;41837;55.700;37.984;2022-08-24T14:44:50;12.48;;;2.25;;
55931;SDS011;41837;55.700;37.984;2022-08-24T14:47:30;6.00;;;2.03;;
55931;SDS011;41837;55.700;37.984;2022-08-24T14:50:33;6.15;;;1.80;;
55931;SDS011;41837;55.700;37.984;2022-08-24T14:55:39;6.18;;;1.90;;
55931;SDS011;41837;55.700;37.984;2022-08-24T15:09:33;7.03;;;2.55;;
55931;SDS011;41837;55.700;37.984;2022-08-24T15:11:51;13.73;;;2.42;;
55931;SDS011;41837;55.700;37.984;2022-08-24T15:17:02;10.48;;;1.98;;
55931;SDS011;41837;55.700;37.984;2022-08-24T15:19:34;14.75;;;1.98;;
55931;SDS011;41837;55.700;37.984;2022-08-24T15:22:08;8.38;;;1.70;;
55931;SDS011;41837;55.700;37.984;2022-08-24T15:29:34;12.55;;;2.47;;
55931;SDS011;41837;55.700;37.984;2022-08-24T15:34:39;8.68;;;2.28;;
55931;SDS011;41837;55.700;37.984;2022-08-24T15:37:08;10.23;;;2.30;;
55931;SDS011;41837;55.700;37.984;2022-08-24T15:39:34;15.63;;;2.60;;
55931;SDS011;41837;55.700;37.984;2022-08-24T15:42:04;14.27;;;2.65;;
55931;SDS011;41837;55.700;37.984;2022-08-24T15:44:33;10.82;;;2.35;;
55931;SDS011;41837;55.700;37.984;2022-08-24T15:47:11;14.07;;;3.50;;
55931;SDS011;41837;55.700;37.984;2022-08-24T15:49:47;41.05;;;16.92;;
55931;SDS011;41837;55.700;37.984;2022-08-24T15:55:00;25.98;;;8.75;;
55931;SDS011;41837;55.700;37.984;2022-08-24T15:57:29;38.10;;;14.90;;
55931;SDS011;41837;55.700;37.984;2022-08-24T16:00:11;71.43;;;33.30;;
55931;SDS011;41837;55.700;37.984;2022-08-24T16:02:38;26.70;;;7.35;;
55931;SDS011;41837;55.700;37.984;2022-08-24T16:05:15;26.58;;;11.05;;
55931;SDS011;41837;55.700;37.984;2022-08-24T16:10:32;13.15;;;5.22;;
55931;SDS011;41837;55.700;37.984;2022-08-24T16:21:15;13.23;;;3.83;;
55931;SDS011;41837;55.700;37.984;2022-08-24T16:23:45;28.25;;;4.90;;
55931;SDS011;41837;55.700;37.984;2022-08-24T16:28:43;28.25;;;4.97;;
55931;SDS011;41837;55.700;37.984;2022-08-24T16:31:10;34.22;;;5.15;;
55931;SDS011;41837;55.700;37.984;2022-08-24T16:33:38;29.42;;;5.80;;
55931;SDS011;41837;55.700;37.984;2022-08-24T16:36:07;33.47;;;6.43;;
55931;SDS011;41837;55.700;37.984;2022-08-24T16:38:35;32.30;;;5.53;;
55931;SDS011;41837;55.700;37.984;2022-08-24T16:41:07;35.50;;;5.22;;
55931;SDS011;41837;55.700;37.984;2022-08-24T16:43:34;32.25;;;5.85;;
55931;SDS011;41837;55.700;37.984;2022-08-24T16:46:01;32.10;;;5.38;;
55931;SDS011;41837;55.700;37.984;2022-08-24T16:48:27;38.90;;;7.13;;
55931;SDS011;41837;55.700;37.984;2022-08-24T16:50:53;44.55;;;8.10;;
55931;SDS011;41837;55.700;37.984;2022-08-24T16:53:21;33.25;;;8.15;;
55931;SDS011;41837;55.700;37.984;2022-08-24T16:55:47;32.45;;;6.78;;
55931;SDS011;41837;55.700;37.984;2022-08-24T16:58:13;29.00;;;5.95;;
55931;SDS011;41837;55.700;37.984;2022-08-24T17:00:39;31.85;;;6.60;;
55931;SDS011;41837;55.700;37.984;2022-08-24T17:03:06;42.00;;;7.70;;
55931;SDS011;41837;55.700;37.984;2022-08-24T17:05:32;42.20;;;8.65;;
55931;SDS011;41837;55.700;37.984;2022-08-24T17:07:59;73.05;;;9.07;;
55931;SDS011;41837;55.700;37.984;2022-08-24T17:10:26;42.70;;;8.85;;
55931;SDS011;41837;55.700;37.984;2022-08-24T17:12:52;48.85;;;9.00;;
55931;SDS011;41837;55.700;37.984;2022-08-24T17:15:18;47.72;;;10.88;;
55931;SDS011;41837;55.700;37.984;2022-08-24T17:17:47;44.47;;;10.70;;
55931;SDS011;41837;55.700;37.984;2022-08-24T17:20:19;46.85;;;10.77;;
55931;SDS011;41837;55.700;37.984;2022-08-24T17:22:45;44.38;;;9.20;;
55931;SDS011;41837;55.700;37.984;2022-08-24T17:25:11;57.55;;;11.20;;
55931;SDS011;41837;55.700;37.984;2022-08-24T17:27:37;70.10;;;10.57;;
55931;SDS011;41837;55.700;37.984;2022-08-24T17:30:03;47.17;;;10.18;;
55931;SDS011;41837;55.700;37.984;2022-08-24T17:32:30;54.53;;;10.63;;
55931;SDS011;41837;55.700;37.984;2022-08-24T17:34:56;38.88;;;10.05;;
55931;SDS011;41837;55.700;37.984;2022-08-24T17:37:22;31.33;;;9.25;;
55931;SDS011;41837;55.700;37.984;2022-08-24T17:39:51;33.55;;;9.32;;
55931;SDS011;41837;55.700;37.984;2022-08-24T17:42:18;41.75;;;9.35;;
55931;SDS011;41837;55.700;37.984;2022-08-24T17:44:44;24.33;;;9.15;;
55931;SDS011;41837;55.700;37.984;2022-08-24T17:47:10;39.25;;;9.02;;
55931;SDS011;41837;55.700;37.984;2022-08-24T17:49:37;35.85;;;9.20;;
55931;SDS011;41837;55.700;37.984;2022-08-24T17:52:04;66.57;;;17.67;;
55931;SDS011;41837;55.700;37.984;2022-08-24T17:54:30;60.60;;;20.75;;
55931;SDS011;41837;55.700;37.984;2022-08-24T17:56:56;74.05;;;21.58;;
55931;SDS011;41837;55.700;37.984;2022-08-24T17:59:30;69.82;;;23.67;;
55931;SDS011;41837;55.700;37.984;2022-08-24T18:01:59;82.03;;;29.60;;
55931;SDS011;41837;55.700;37.984;2022-08-24T18:04:26;57.85;;;20.30;;
55931;SDS011;41837;55.700;37.984;2022-08-24T18:06:53;58.97;;;16.48;;
55931;SDS011;41837;55.700;37.984;2022-08-24T18:09:23;54.17;;;15.93;;
55931;SDS011;41837;55.700;37.984;2022-08-24T18:11:51;58.47;;;16.70;;
55931;SDS011;41837;55.700;37.984;2022-08-24T18:14:17;45.83;;;15.50;;
55931;SDS011;41837;55.700;37.984;2022-08-24T18:16:43;43.13;;;14.23;;
55931;SDS011;41837;55.700;37.984;2022-08-24T18:19:10;62.40;;;15.57;;
55931;SDS011;41837;55.700;37.984;2022-08-24T18:21:38;113.68;;;17.75;;